sensor_id;sensor_type;location;lat;lon;timestamp;temperature;humidity
49236;DHT22;35067;48.134;8.378;2023-03-23T00:00:47;9.80;90.70
49236;DHT22;35067;48.134;8.378;2023-03-23T00:01:53;9.80;90.20
49236;DHT22;35067;48.134;8.378;2023-03-23T00:02:59;9.80;90.10
49236;DHT22;35067;48.134;8.378;2023-03-23T00:04:04;9.70;90.30
49236;DHT22;35067;48.134;8.378;2023-03-23T00:05:09;9.80;90.40
49236;DHT22;35067;48.134;8.378;2023-03-23T00:06:16;9.80;90.20
49236;DHT22;35067;48.134;8.378;2023-03-23T00:07:23;9.70;90.30
49236;DHT22;35067;48.134;8.378;2023-03-23T00:08:34;9.70;90.50
49236;DHT22;35067;48.134;8.378;2023-03-23T00:09:42;9.70;90.50
49236;DHT22;35067;48.134;8.378;2023-03-23T00:10:52;9.80;90.60
49236;DHT22;35067;48.134;8.378;2023-03-23T00:12:01;9.60;91.20
49236;DHT22;35067;48.134;8.378;2023-03-23T00:13:09;9.50;91.30
49236;DHT22;35067;48.134;8.378;2023-03-23T00:14:17;9.40;92.00
49236;DHT22;35067;48.134;8.378;2023-03-23T00:15:28;9.20;92.20
49236;DHT22;35067;48.134;8.378;2023-03-23T00:16:40;9.20;92.30
49236;DHT22;35067;48.134;8.378;2023-03-23T00:17:46;9.30;92.20
49236;DHT22;35067;48.134;8.378;2023-03-23T00:18:52;9.30;92.30
49236;DHT22;35067;48.134;8.378;2023-03-23T00:19:57;9.30;92.10
49236;DHT22;35067;48.134;8.378;2023-03-23T00:21:03;9.20;92.20
49236;DHT22;35067;48.134;8.378;2023-03-23T00:22:08;9.10;92.90
49236;DHT22;35067;48.134;8.378;2023-03-23T00:23:19;9.10;93.30
49236;DHT22;35067;48.134;8.378;2023-03-23T00:24:26;9.10;93.30
49236;DHT22;35067;48.134;8.378;2023-03-23T00:25:32;9.10;93.50
49236;DHT22;35067;48.134;8.378;2023-03-23T00:26:39;9.10;93.50
49236;DHT22;35067;48.134;8.378;2023-03-23T00:27:45;9.10;93.20
49236;DHT22;35067;48.134;8.378;2023-03-23T00:28:51;9.10;93.50
49236;DHT22;35067;48.134;8.378;2023-03-23T00:29:57;9.00;93.50
49236;DHT22;35067;48.134;8.378;2023-03-23T00:31:05;9.00;93.70
49236;DHT22;35067;48.134;8.378;2023-03-23T00:32:09;8.80;93.60
49236;DHT22;35067;48.134;8.378;2023-03-23T00:33:18;8.80;94.00
49236;DHT22;35067;48.134;8.378;2023-03-23T00:34:24;8.40;94.00
49236;DHT22;35067;48.134;8.378;2023-03-23T00:35:30;8.90;94.60
49236;DHT22;35067;48.134;8.378;2023-03-23T00:36:40;8.80;95.10
49236;DHT22;35067;48.134;8.378;2023-03-23T00:37:48;8.70;95.00
49236;DHT22;35067;48.134;8.378;2023-03-23T00:38:54;8.60;95.30
49236;DHT22;35067;48.134;8.378;2023-03-23T00:40:03;8.70;95.20
49236;DHT22;35067;48.134;8.378;2023-03-23T00:41:09;8.80;94.80
49236;DHT22;35067;48.134;8.378;2023-03-23T00:42:16;8.90;94.40
49236;DHT22;35067;48.134;8.378;2023-03-23T00:43:24;8.90;94.20
49236;DHT22;35067;48.134;8.378;2023-03-23T00:44:31;8.90;94.20
49236;DHT22;35067;48.134;8.378;2023-03-23T00:45:38;8.90;94.20
49236;DHT22;35067;48.134;8.378;2023-03-23T00:46:47;8.90;94.10
49236;DHT22;35067;48.134;8.378;2023-03-23T00:47:54;8.80;94.30
49236;DHT22;35067;48.134;8.378;2023-03-23T00:49:01;8.90;94.30
49236;DHT22;35067;48.134;8.378;2023-03-23T00:50:05;8.90;94.20
49236;DHT22;35067;48.134;8.378;2023-03-23T00:51:09;8.90;94.40
49236;DHT22;35067;48.134;8.378;2023-03-23T00:52:16;8.80;94.90
49236;DHT22;35067;48.134;8.378;2023-03-23T00:53:22;8.70;95.20
49236;DHT22;35067;48.134;8.378;2023-03-23T00:54:28;8.80;95.00
49236;DHT22;35067;48.134;8.378;2023-03-23T00:55:34;8.80;94.60
49236;DHT22;35067;48.134;8.378;2023-03-23T00:56:40;8.80;94.50
49236;DHT22;35067;48.134;8.378;2023-03-23T00:57:45;8.80;94.20
49236;DHT22;35067;48.134;8.378;2023-03-23T00:58:51;8.80;94.20
49236;DHT22;35067;48.134;8.378;2023-03-23T00:59:57;8.60;94.50
49236;DHT22;35067;48.134;8.378;2023-03-23T01:01:03;8.80;95.00
49236;DHT22;35067;48.134;8.378;2023-03-23T01:02:09;8.70;93.90
49236;DHT22;35067;48.134;8.378;2023-03-23T01:03:15;8.80;92.30
49236;DHT22;35067;48.134;8.378;2023-03-23T01:04:23;8.80;92.50
49236;DHT22;35067;48.134;8.378;2023-03-23T01:05:29;8.90;92.60
49236;DHT22;35067;48.134;8.378;2023-03-23T01:06:38;9.00;92.50
49236;DHT22;35067;48.134;8.378;2023-03-23T01:07:45;9.20;92.40
49236;DHT22;35067;48.134;8.378;2023-03-23T01:08:51;9.30;91.10
49236;DHT22;35067;48.134;8.378;2023-03-23T01:09:59;9.40;91.10
49236;DHT22;35067;48.134;8.378;2023-03-23T01:11:06;9.40;91.00
49236;DHT22;35067;48.134;8.378;2023-03-23T01:12:09;9.50;89.30
49236;DHT22;35067;48.134;8.378;2023-03-23T01:13:16;9.70;86.80
49236;DHT22;35067;48.134;8.378;2023-03-23T01:14:22;9.80;86.90
49236;DHT22;35067;48.134;8.378;2023-03-23T01:15:29;9.90;85.90
49236;DHT22;35067;48.134;8.378;2023-03-23T01:16:35;9.90;85.80
49236;DHT22;35067;48.134;8.378;2023-03-23T01:17:42;10.00;85.00
49236;DHT22;35067;48.134;8.378;2023-03-23T01:18:48;10.20;84.50
49236;DHT22;35067;48.134;8.378;2023-03-23T01:19:53;10.20;84.00
49236;DHT22;35067;48.134;8.378;2023-03-23T01:21:12;10.20;83.70
49236;DHT22;35067;48.134;8.378;2023-03-23T01:22:20;10.20;84.10
49236;DHT22;35067;48.134;8.378;2023-03-23T01:23:25;10.30;83.30
49236;DHT22;35067;48.134;8.378;2023-03-23T01:24:31;10.50;82.60
49236;DHT22;35067;48.134;8.378;2023-03-23T01:25:37;10.50;81.50
49236;DHT22;35067;48.134;8.378;2023-03-23T01:26:43;10.70;81.00
49236;DHT22;35067;48.134;8.378;2023-03-23T01:27:48;10.70;80.90
49236;DHT22;35067;48.134;8.378;2023-03-23T01:28:55;10.60;81.30
49236;DHT22;35067;48.134;8.378;2023-03-23T01:30:01;10.50;82.10
49236;DHT22;35067;48.134;8.378;2023-03-23T01:31:07;10.50;82.50
49236;DHT22;35067;48.134;8.378;2023-03-23T01:32:14;10.50;82.20
49236;DHT22;35067;48.134;8.378;2023-03-23T01:33:20;10.60;82.30
49236;DHT22;35067;48.134;8.378;2023-03-23T01:34:26;10.60;82.20
49236;DHT22;35067;48.134;8.378;2023-03-23T01:35:32;10.70;82.40
49236;DHT22;35067;48.134;8.378;2023-03-23T01:36:37;10.80;81.60
49236;DHT22;35067;48.134;8.378;2023-03-23T01:37:43;10.80;81.50
49236;DHT22;35067;48.134;8.378;2023-03-23T01:38:49;10.80;81.40
49236;DHT22;35067;48.134;8.378;2023-03-23T01:39:56;10.90;81.30
49236;DHT22;35067;48.134;8.378;2023-03-23T01:41:03;10.90;81.30
49236;DHT22;35067;48.134;8.378;2023-03-23T01:42:09;11.00;80.80
49236;DHT22;35067;48.134;8.378;2023-03-23T01:43:15;11.00;80.40
49236;DHT22;35067;48.134;8.378;2023-03-23T01:45:30;11.10;79.60
49236;DHT22;35067;48.134;8.378;2023-03-23T01:46:39;11.20;79.90
49236;DHT22;35067;48.134;8.378;2023-03-23T01:49:23;11.30;78.30
49236;DHT22;35067;48.134;8.378;2023-03-23T01:50:37;11.40;77.80
49236;DHT22;35067;48.134;8.378;2023-03-23T01:51:56;11.50;77.50
49236;DHT22;35067;48.134;8.378;2023-03-23T01:53:06;11.60;76.40
49236;DHT22;35067;48.134;8.378;2023-03-23T01:54:13;11.60;76.30
49236;DHT22;35067;48.134;8.378;2023-03-23T01:55:25;11.60;76.60
49236;DHT22;35067;48.134;8.378;2023-03-23T01:56:38;11.60;76.60
49236;DHT22;35067;48.134;8.378;2023-03-23T01:57:47;11.60;76.70
49236;DHT22;35067;48.134;8.378;2023-03-23T01:58:53;11.50;76.50
49236;DHT22;35067;48.134;8.378;2023-03-23T02:00:04;11.50;76.60
49236;DHT22;35067;48.134;8.378;2023-03-23T02:01:20;11.60;76.20
49236;DHT22;35067;48.134;8.378;2023-03-23T02:02:32;11.60;76.00
49236;DHT22;35067;48.134;8.378;2023-03-23T02:03:43;11.70;75.80
49236;DHT22;35067;48.134;8.378;2023-03-23T02:04:50;11.70;75.80
49236;DHT22;35067;48.134;8.378;2023-03-23T02:05:58;11.70;75.80
49236;DHT22;35067;48.134;8.378;2023-03-23T02:07:03;11.70;75.80
49236;DHT22;35067;48.134;8.378;2023-03-23T02:08:10;11.70;75.40
49236;DHT22;35067;48.134;8.378;2023-03-23T02:09:18;11.60;75.40
49236;DHT22;35067;48.134;8.378;2023-03-23T02:10:24;11.60;75.50
49236;DHT22;35067;48.134;8.378;2023-03-23T02:11:30;11.70;75.10
49236;DHT22;35067;48.134;8.378;2023-03-23T02:12:36;11.60;75.30
49236;DHT22;35067;48.134;8.378;2023-03-23T02:13:42;11.60;75.00
49236;DHT22;35067;48.134;8.378;2023-03-23T02:14:48;11.70;75.10
49236;DHT22;35067;48.134;8.378;2023-03-23T02:16:04;11.70;75.10
49236;DHT22;35067;48.134;8.378;2023-03-23T02:20:23;11.70;74.10
49236;DHT22;35067;48.134;8.378;2023-03-23T02:22:02;11.70;74.10
49236;DHT22;35067;48.134;8.378;2023-03-23T02:26:38;11.90;73.30
49236;DHT22;35067;48.134;8.378;2023-03-23T02:34:07;11.90;73.10
49236;DHT22;35067;48.134;8.378;2023-03-23T02:35:22;11.90;72.40
49236;DHT22;35067;48.134;8.378;2023-03-23T02:37:57;11.80;72.20
49236;DHT22;35067;48.134;8.378;2023-03-23T02:39:14;11.80;72.60
49236;DHT22;35067;48.134;8.378;2023-03-23T02:40:44;11.80;71.70
49236;DHT22;35067;48.134;8.378;2023-03-23T02:41:55;11.80;71.90
49236;DHT22;35067;48.134;8.378;2023-03-23T02:43:07;11.80;71.50
49236;DHT22;35067;48.134;8.378;2023-03-23T02:44:15;11.70;71.90
49236;DHT22;35067;48.134;8.378;2023-03-23T02:45:22;11.70;72.10
49236;DHT22;35067;48.134;8.378;2023-03-23T02:46:30;11.80;72.70
49236;DHT22;35067;48.134;8.378;2023-03-23T02:47:38;11.80;73.20
49236;DHT22;35067;48.134;8.378;2023-03-23T02:48:45;11.70;73.60
49236;DHT22;35067;48.134;8.378;2023-03-23T02:49:55;11.70;73.30
49236;DHT22;35067;48.134;8.378;2023-03-23T02:51:03;11.70;74.00
49236;DHT22;35067;48.134;8.378;2023-03-23T02:52:14;11.60;75.10
49236;DHT22;35067;48.134;8.378;2023-03-23T02:53:23;11.50;76.30
49236;DHT22;35067;48.134;8.378;2023-03-23T02:54:30;11.40;77.80
49236;DHT22;35067;48.134;8.378;2023-03-23T02:55:39;11.20;78.10
49236;DHT22;35067;48.134;8.378;2023-03-23T02:56:47;11.10;78.20
49236;DHT22;35067;48.134;8.378;2023-03-23T02:57:54;11.10;79.10
49236;DHT22;35067;48.134;8.378;2023-03-23T02:59:01;11.00;79.60
49236;DHT22;35067;48.134;8.378;2023-03-23T03:00:06;10.90;80.30
49236;DHT22;35067;48.134;8.378;2023-03-23T03:02:48;10.60;81.60
49236;DHT22;35067;48.134;8.378;2023-03-23T03:04:03;10.50;83.00
49236;DHT22;35067;48.134;8.378;2023-03-23T03:05:36;10.30;83.80
49236;DHT22;35067;48.134;8.378;2023-03-23T03:09:52;10.10;86.70
49236;DHT22;35067;48.134;8.378;2023-03-23T03:11:08;10.00;86.80
49236;DHT22;35067;48.134;8.378;2023-03-23T03:12:27;10.00;87.30
49236;DHT22;35067;48.134;8.378;2023-03-23T03:13:49;9.80;88.30
49236;DHT22;35067;48.134;8.378;2023-03-23T03:18:00;9.90;90.00
49236;DHT22;35067;48.134;8.378;2023-03-23T03:19:19;9.90;90.00
49236;DHT22;35067;48.134;8.378;2023-03-23T03:20:31;10.00;90.10
49236;DHT22;35067;48.134;8.378;2023-03-23T03:21:42;9.80;88.90
49236;DHT22;35067;48.134;8.378;2023-03-23T03:22:49;9.90;88.60
49236;DHT22;35067;48.134;8.378;2023-03-23T03:24:01;9.90;88.50
49236;DHT22;35067;48.134;8.378;2023-03-23T03:25:05;9.90;89.10
49236;DHT22;35067;48.134;8.378;2023-03-23T03:26:11;9.90;88.90
49236;DHT22;35067;48.134;8.378;2023-03-23T03:27:20;9.90;88.70
49236;DHT22;35067;48.134;8.378;2023-03-23T03:28:26;10.00;88.00
49236;DHT22;35067;48.134;8.378;2023-03-23T03:29:34;10.10;85.10
49236;DHT22;35067;48.134;8.378;2023-03-23T03:30:42;10.10;84.40
49236;DHT22;35067;48.134;8.378;2023-03-23T03:31:51;10.10;86.00
49236;DHT22;35067;48.134;8.378;2023-03-23T03:32:57;10.10;86.00
49236;DHT22;35067;48.134;8.378;2023-03-23T03:34:05;10.10;84.90
49236;DHT22;35067;48.134;8.378;2023-03-23T03:35:09;10.10;84.40
49236;DHT22;35067;48.134;8.378;2023-03-23T03:36:19;10.10;83.40
49236;DHT22;35067;48.134;8.378;2023-03-23T03:37:27;10.10;83.90
49236;DHT22;35067;48.134;8.378;2023-03-23T03:38:46;10.10;85.10
49236;DHT22;35067;48.134;8.378;2023-03-23T03:39:53;10.00;85.10
49236;DHT22;35067;48.134;8.378;2023-03-23T03:40:59;9.90;85.50
49236;DHT22;35067;48.134;8.378;2023-03-23T03:42:05;9.80;85.90
49236;DHT22;35067;48.134;8.378;2023-03-23T03:43:09;9.80;86.50
49236;DHT22;35067;48.134;8.378;2023-03-23T03:44:15;9.80;86.90
49236;DHT22;35067;48.134;8.378;2023-03-23T03:45:21;9.70;87.70
49236;DHT22;35067;48.134;8.378;2023-03-23T03:46:27;9.60;88.00
49236;DHT22;35067;48.134;8.378;2023-03-23T03:47:35;9.60;88.50
49236;DHT22;35067;48.134;8.378;2023-03-23T03:48:41;9.60;89.00
49236;DHT22;35067;48.134;8.378;2023-03-23T03:49:46;9.50;89.20
49236;DHT22;35067;48.134;8.378;2023-03-23T03:50:52;9.50;89.60
49236;DHT22;35067;48.134;8.378;2023-03-23T03:52:01;9.50;89.60
49236;DHT22;35067;48.134;8.378;2023-03-23T03:53:05;9.50;89.50
49236;DHT22;35067;48.134;8.378;2023-03-23T03:54:09;9.50;90.00
49236;DHT22;35067;48.134;8.378;2023-03-23T03:55:16;9.50;90.00
49236;DHT22;35067;48.134;8.378;2023-03-23T03:56:23;9.50;89.60
49236;DHT22;35067;48.134;8.378;2023-03-23T03:57:29;9.60;89.50
49236;DHT22;35067;48.134;8.378;2023-03-23T03:58:35;9.60;89.50
49236;DHT22;35067;48.134;8.378;2023-03-23T03:59:41;9.60;90.00
49236;DHT22;35067;48.134;8.378;2023-03-23T04:00:47;9.60;90.00
49236;DHT22;35067;48.134;8.378;2023-03-23T04:01:55;9.50;90.30
49236;DHT22;35067;48.134;8.378;2023-03-23T04:03:01;9.40;90.80
49236;DHT22;35067;48.134;8.378;2023-03-23T04:04:04;9.30;91.00
49236;DHT22;35067;48.134;8.378;2023-03-23T04:05:09;9.30;91.60
49236;DHT22;35067;48.134;8.378;2023-03-23T04:06:16;9.20;91.70
49236;DHT22;35067;48.134;8.378;2023-03-23T04:07:22;9.30;91.40
49236;DHT22;35067;48.134;8.378;2023-03-23T04:08:31;9.30;91.40
49236;DHT22;35067;48.134;8.378;2023-03-23T04:09:37;9.30;91.20
49236;DHT22;35067;48.134;8.378;2023-03-23T04:10:43;9.40;91.10
49236;DHT22;35067;48.134;8.378;2023-03-23T04:11:49;9.30;91.10
49236;DHT22;35067;48.134;8.378;2023-03-23T04:12:55;9.40;91.10
49236;DHT22;35067;48.134;8.378;2023-03-23T04:14:01;9.50;90.70
49236;DHT22;35067;48.134;8.378;2023-03-23T04:15:05;9.50;90.60
49236;DHT22;35067;48.134;8.378;2023-03-23T04:16:09;9.70;90.40
49236;DHT22;35067;48.134;8.378;2023-03-23T04:17:15;9.70;90.30
49236;DHT22;35067;48.134;8.378;2023-03-23T04:18:22;9.80;90.90
49236;DHT22;35067;48.134;8.378;2023-03-23T04:19:29;9.70;91.20
49236;DHT22;35067;48.134;8.378;2023-03-23T04:20:38;9.70;91.10
49236;DHT22;35067;48.134;8.378;2023-03-23T04:21:44;9.70;91.10
49236;DHT22;35067;48.134;8.378;2023-03-23T04:22:54;9.60;90.70
49236;DHT22;35067;48.134;8.378;2023-03-23T04:24:00;9.60;90.70
49236;DHT22;35067;48.134;8.378;2023-03-23T04:25:05;9.60;90.80
49236;DHT22;35067;48.134;8.378;2023-03-23T04:26:08;9.60;91.00
49236;DHT22;35067;48.134;8.378;2023-03-23T04:27:18;9.70;91.20
49236;DHT22;35067;48.134;8.378;2023-03-23T04:28:24;9.70;90.90
49236;DHT22;35067;48.134;8.378;2023-03-23T04:29:30;9.70;90.80
49236;DHT22;35067;48.134;8.378;2023-03-23T04:30:36;9.80;90.70
49236;DHT22;35067;48.134;8.378;2023-03-23T04:31:42;9.80;90.80
49236;DHT22;35067;48.134;8.378;2023-03-23T04:32:51;9.80;90.60
49236;DHT22;35067;48.134;8.378;2023-03-23T04:33:57;9.80;90.20
49236;DHT22;35067;48.134;8.378;2023-03-23T04:35:04;9.90;89.70
49236;DHT22;35067;48.134;8.378;2023-03-23T04:36:09;9.90;89.60
49236;DHT22;35067;48.134;8.378;2023-03-23T04:37:15;9.90;90.20
49236;DHT22;35067;48.134;8.378;2023-03-23T04:38:21;9.90;90.30
49236;DHT22;35067;48.134;8.378;2023-03-23T04:39:29;9.80;90.40
49236;DHT22;35067;48.134;8.378;2023-03-23T04:40:40;9.70;90.70
49236;DHT22;35067;48.134;8.378;2023-03-23T04:41:47;9.80;90.80
49236;DHT22;35067;48.134;8.378;2023-03-23T04:42:53;9.80;90.70
49236;DHT22;35067;48.134;8.378;2023-03-23T04:44:03;9.70;91.00
49236;DHT22;35067;48.134;8.378;2023-03-23T04:45:08;9.70;91.00
49236;DHT22;35067;48.134;8.378;2023-03-23T04:46:14;9.70;91.10
49236;DHT22;35067;48.134;8.378;2023-03-23T04:47:25;9.70;91.40
49236;DHT22;35067;48.134;8.378;2023-03-23T04:48:34;9.60;91.80
49236;DHT22;35067;48.134;8.378;2023-03-23T04:49:41;9.40;92.30
49236;DHT22;35067;48.134;8.378;2023-03-23T04:50:47;9.20;92.90
49236;DHT22;35067;48.134;8.378;2023-03-23T04:51:53;9.20;93.40
49236;DHT22;35067;48.134;8.378;2023-03-23T04:53:00;9.10;93.60
49236;DHT22;35067;48.134;8.378;2023-03-23T04:54:08;9.10;93.70
49236;DHT22;35067;48.134;8.378;2023-03-23T04:55:09;9.00;93.60
49236;DHT22;35067;48.134;8.378;2023-03-23T04:56:15;9.00;93.70
49236;DHT22;35067;48.134;8.378;2023-03-23T04:57:21;8.90;94.70
49236;DHT22;35067;48.134;8.378;2023-03-23T04:58:27;8.80;94.80
49236;DHT22;35067;48.134;8.378;2023-03-23T04:59:34;8.80;94.60
49236;DHT22;35067;48.134;8.378;2023-03-23T05:00:40;8.70;94.30
49236;DHT22;35067;48.134;8.378;2023-03-23T05:01:48;8.90;94.30
49236;DHT22;35067;48.134;8.378;2023-03-23T05:02:54;8.90;94.70
49236;DHT22;35067;48.134;8.378;2023-03-23T05:04:00;9.00;94.20
49236;DHT22;35067;48.134;8.378;2023-03-23T05:05:07;9.00;93.90
49236;DHT22;35067;48.134;8.378;2023-03-23T05:06:09;9.00;94.20
49236;DHT22;35067;48.134;8.378;2023-03-23T05:07:16;9.10;93.90
49236;DHT22;35067;48.134;8.378;2023-03-23T05:08:23;9.00;93.70
49236;DHT22;35067;48.134;8.378;2023-03-23T05:09:32;9.00;93.50
49236;DHT22;35067;48.134;8.378;2023-03-23T05:10:37;9.00;93.50
49236;DHT22;35067;48.134;8.378;2023-03-23T05:11:43;9.10;93.30
49236;DHT22;35067;48.134;8.378;2023-03-23T05:12:49;9.10;93.60
49236;DHT22;35067;48.134;8.378;2023-03-23T05:13:55;9.10;93.40
49236;DHT22;35067;48.134;8.378;2023-03-23T05:15:01;9.20;92.90
49236;DHT22;35067;48.134;8.378;2023-03-23T05:16:05;9.30;92.90
49236;DHT22;35067;48.134;8.378;2023-03-23T05:17:09;9.40;92.70
49236;DHT22;35067;48.134;8.378;2023-03-23T05:18:15;9.40;93.30
49236;DHT22;35067;48.134;8.378;2023-03-23T05:19:21;9.30;93.50
49236;DHT22;35067;48.134;8.378;2023-03-23T05:20:27;9.30;93.20
49236;DHT22;35067;48.134;8.378;2023-03-23T05:21:34;9.30;93.90
49236;DHT22;35067;48.134;8.378;2023-03-23T05:22:41;9.30;93.50
49236;DHT22;35067;48.134;8.378;2023-03-23T05:23:49;9.30;93.50
49236;DHT22;35067;48.134;8.378;2023-03-23T05:25:00;9.40;92.60
49236;DHT22;35067;48.134;8.378;2023-03-23T05:26:04;9.30;92.80
49236;DHT22;35067;48.134;8.378;2023-03-23T05:27:09;9.40;92.80
49236;DHT22;35067;48.134;8.378;2023-03-23T05:28:16;9.40;92.40
49236;DHT22;35067;48.134;8.378;2023-03-23T05:29:22;9.40;92.00
49236;DHT22;35067;48.134;8.378;2023-03-23T05:30:29;9.50;91.10
49236;DHT22;35067;48.134;8.378;2023-03-23T05:31:35;9.60;90.10
49236;DHT22;35067;48.134;8.378;2023-03-23T05:32:41;9.70;91.00
49236;DHT22;35067;48.134;8.378;2023-03-23T05:33:47;9.80;90.70
49236;DHT22;35067;48.134;8.378;2023-03-23T05:34:52;9.90;90.00
49236;DHT22;35067;48.134;8.378;2023-03-23T05:35:58;9.80;88.00
49236;DHT22;35067;48.134;8.378;2023-03-23T05:37:04;10.00;87.30
49236;DHT22;35067;48.134;8.378;2023-03-23T05:38:09;10.10;86.80
49236;DHT22;35067;48.134;8.378;2023-03-23T05:39:15;10.20;84.60
49236;DHT22;35067;48.134;8.378;2023-03-23T05:40:21;10.20;84.00
49236;DHT22;35067;48.134;8.378;2023-03-23T05:41:29;10.30;84.30
49236;DHT22;35067;48.134;8.378;2023-03-23T05:42:35;10.40;83.90
49236;DHT22;35067;48.134;8.378;2023-03-23T05:43:41;10.40;82.10
49236;DHT22;35067;48.134;8.378;2023-03-23T05:44:47;10.50;82.50
49236;DHT22;35067;48.134;8.378;2023-03-23T05:45:53;10.60;81.80
49236;DHT22;35067;48.134;8.378;2023-03-23T05:46:58;10.90;81.30
49236;DHT22;35067;48.134;8.378;2023-03-23T05:48:04;10.80;79.90
49236;DHT22;35067;48.134;8.378;2023-03-23T05:49:09;10.80;79.80
49236;DHT22;35067;48.134;8.378;2023-03-23T05:50:15;11.00;78.70
49236;DHT22;35067;48.134;8.378;2023-03-23T05:51:21;11.10;77.90
49236;DHT22;35067;48.134;8.378;2023-03-23T05:52:27;11.20;77.20
49236;DHT22;35067;48.134;8.378;2023-03-23T05:53:33;11.30;76.50
49236;DHT22;35067;48.134;8.378;2023-03-23T05:54:38;11.40;76.20
49236;DHT22;35067;48.134;8.378;2023-03-23T05:55:44;11.50;76.00
49236;DHT22;35067;48.134;8.378;2023-03-23T05:56:50;11.60;75.60
49236;DHT22;35067;48.134;8.378;2023-03-23T05:57:56;11.60;74.10
49236;DHT22;35067;48.134;8.378;2023-03-23T05:59:01;11.70;73.80
49236;DHT22;35067;48.134;8.378;2023-03-23T06:00:05;11.80;73.50
49236;DHT22;35067;48.134;8.378;2023-03-23T06:01:25;11.90;73.50
49236;DHT22;35067;48.134;8.378;2023-03-23T06:02:31;11.90;73.90
49236;DHT22;35067;48.134;8.378;2023-03-23T06:03:36;12.00;74.00
49236;DHT22;35067;48.134;8.378;2023-03-23T06:04:42;12.00;74.40
49236;DHT22;35067;48.134;8.378;2023-03-23T06:05:48;12.00;74.00
49236;DHT22;35067;48.134;8.378;2023-03-23T06:06:53;11.90;74.00
49236;DHT22;35067;48.134;8.378;2023-03-23T06:07:59;12.00;74.40
49236;DHT22;35067;48.134;8.378;2023-03-23T06:09:04;12.00;74.70
49236;DHT22;35067;48.134;8.378;2023-03-23T06:10:09;12.00;74.50
49236;DHT22;35067;48.134;8.378;2023-03-23T06:11:16;12.00;74.50
49236;DHT22;35067;48.134;8.378;2023-03-23T06:12:21;12.00;75.10
49236;DHT22;35067;48.134;8.378;2023-03-23T06:13:27;12.00;75.50
49236;DHT22;35067;48.134;8.378;2023-03-23T06:14:33;12.00;75.50
49236;DHT22;35067;48.134;8.378;2023-03-23T06:15:39;12.10;75.30
49236;DHT22;35067;48.134;8.378;2023-03-23T06:16:44;12.00;75.00
49236;DHT22;35067;48.134;8.378;2023-03-23T06:17:50;12.00;75.50
49236;DHT22;35067;48.134;8.378;2023-03-23T06:19:01;12.00;76.00
49236;DHT22;35067;48.134;8.378;2023-03-23T06:20:05;12.00;76.20
49236;DHT22;35067;48.134;8.378;2023-03-23T06:21:15;12.00;76.20
49236;DHT22;35067;48.134;8.378;2023-03-23T06:22:23;12.00;76.00
49236;DHT22;35067;48.134;8.378;2023-03-23T06:23:29;12.00;76.60
49236;DHT22;35067;48.134;8.378;2023-03-23T06:24:35;11.90;76.70
49236;DHT22;35067;48.134;8.378;2023-03-23T06:25:41;11.90;76.40
49236;DHT22;35067;48.134;8.378;2023-03-23T06:26:47;11.90;77.60
49236;DHT22;35067;48.134;8.378;2023-03-23T06:27:54;11.90;77.80
49236;DHT22;35067;48.134;8.378;2023-03-23T06:29:00;11.80;78.20
49236;DHT22;35067;48.134;8.378;2023-03-23T06:30:05;11.70;79.20
49236;DHT22;35067;48.134;8.378;2023-03-23T06:31:09;11.70;80.20
49236;DHT22;35067;48.134;8.378;2023-03-23T06:32:15;11.60;80.40
49236;DHT22;35067;48.134;8.378;2023-03-23T06:33:24;11.60;81.30
49236;DHT22;35067;48.134;8.378;2023-03-23T06:34:31;11.50;82.00
49236;DHT22;35067;48.134;8.378;2023-03-23T06:35:37;11.50;82.80
49236;DHT22;35067;48.134;8.378;2023-03-23T06:36:43;11.40;82.70
49236;DHT22;35067;48.134;8.378;2023-03-23T06:37:50;11.30;83.50
49236;DHT22;35067;48.134;8.378;2023-03-23T06:38:56;11.30;81.90
49236;DHT22;35067;48.134;8.378;2023-03-23T06:40:03;11.30;82.80
49236;DHT22;35067;48.134;8.378;2023-03-23T06:41:09;11.30;83.70
49236;DHT22;35067;48.134;8.378;2023-03-23T06:42:15;11.20;84.00
49236;DHT22;35067;48.134;8.378;2023-03-23T06:43:21;11.20;84.80
49236;DHT22;35067;48.134;8.378;2023-03-23T06:44:26;11.20;86.30
49236;DHT22;35067;48.134;8.378;2023-03-23T06:45:32;11.20;86.10
49236;DHT22;35067;48.134;8.378;2023-03-23T06:46:39;11.10;85.70
49236;DHT22;35067;48.134;8.378;2023-03-23T06:47:46;11.10;87.00
49236;DHT22;35067;48.134;8.378;2023-03-23T06:48:55;11.10;86.90
49236;DHT22;35067;48.134;8.378;2023-03-23T06:50:01;11.00;86.60
49236;DHT22;35067;48.134;8.378;2023-03-23T06:51:05;11.00;88.40
49236;DHT22;35067;48.134;8.378;2023-03-23T06:52:09;11.00;88.50
49236;DHT22;35067;48.134;8.378;2023-03-23T06:53:15;11.00;88.60
49236;DHT22;35067;48.134;8.378;2023-03-23T06:54:22;10.90;89.80
49236;DHT22;35067;48.134;8.378;2023-03-23T06:55:28;10.90;89.60
49236;DHT22;35067;48.134;8.378;2023-03-23T06:56:34;10.90;90.00
49236;DHT22;35067;48.134;8.378;2023-03-23T06:57:40;11.00;90.20
49236;DHT22;35067;48.134;8.378;2023-03-23T06:58:46;11.00;90.10
49236;DHT22;35067;48.134;8.378;2023-03-23T06:59:52;11.00;90.30
49236;DHT22;35067;48.134;8.378;2023-03-23T07:00:58;11.00;90.20
49236;DHT22;35067;48.134;8.378;2023-03-23T07:02:04;11.00;90.10
49236;DHT22;35067;48.134;8.378;2023-03-23T07:03:09;11.00;90.30
49236;DHT22;35067;48.134;8.378;2023-03-23T07:04:15;11.10;90.90
49236;DHT22;35067;48.134;8.378;2023-03-23T07:05:21;11.10;90.90
49236;DHT22;35067;48.134;8.378;2023-03-23T07:06:27;11.10;90.80
49236;DHT22;35067;48.134;8.378;2023-03-23T07:07:33;11.10;90.80
49236;DHT22;35067;48.134;8.378;2023-03-23T07:08:38;11.10;90.70
49236;DHT22;35067;48.134;8.378;2023-03-23T07:09:44;11.10;90.80
49236;DHT22;35067;48.134;8.378;2023-03-23T07:10:52;11.10;90.50
49236;DHT22;35067;48.134;8.378;2023-03-23T07:11:58;11.10;90.80
49236;DHT22;35067;48.134;8.378;2023-03-23T07:13:04;11.20;90.80
49236;DHT22;35067;48.134;8.378;2023-03-23T07:14:09;11.20;90.60
49236;DHT22;35067;48.134;8.378;2023-03-23T07:15:15;11.30;90.80
49236;DHT22;35067;48.134;8.378;2023-03-23T07:16:21;11.40;90.30
49236;DHT22;35067;48.134;8.378;2023-03-23T07:17:27;11.40;90.30
49236;DHT22;35067;48.134;8.378;2023-03-23T07:18:33;11.50;90.40
49236;DHT22;35067;48.134;8.378;2023-03-23T07:19:39;11.40;90.50
49236;DHT22;35067;48.134;8.378;2023-03-23T07:20:49;11.40;90.40
49236;DHT22;35067;48.134;8.378;2023-03-23T07:21:56;11.40;90.30
49236;DHT22;35067;48.134;8.378;2023-03-23T07:23:02;11.30;90.40
49236;DHT22;35067;48.134;8.378;2023-03-23T07:24:11;11.30;90.40
49236;DHT22;35067;48.134;8.378;2023-03-23T07:25:19;11.20;91.10
49236;DHT22;35067;48.134;8.378;2023-03-23T07:26:25;11.20;91.10
49236;DHT22;35067;48.134;8.378;2023-03-23T07:27:30;11.20;91.20
49236;DHT22;35067;48.134;8.378;2023-03-23T07:28:36;11.10;91.80
49236;DHT22;35067;48.134;8.378;2023-03-23T07:29:42;11.10;91.90
49236;DHT22;35067;48.134;8.378;2023-03-23T07:30:50;11.10;91.90
49236;DHT22;35067;48.134;8.378;2023-03-23T07:31:56;11.00;92.30
49236;DHT22;35067;48.134;8.378;2023-03-23T07:33:05;11.00;92.80